Time;durP1;ratioP1;P1;durP2;ratioP2;P2;SDS_P1;SDS_P2;PMS_P1;PMS_P2;Temp;Humidity;BMP_temperature;BMP_pressure;BME280_temperature;BME280_humidity;BME280_pressure;Samples;Min_cycle;Max_cycle;Signal;HPM_P1;HPM_P2
2022/12/05 00:01:34;;;;;;;94.53;33.05;;;;;;;2.49;100.00;101407.97;4995145;28;20880;-76
2022/12/05 00:04:03;;;;;;;91.70;32.15;;;;;;;2.42;100.00;101411.84;5009029;28;20033;-76
2022/12/05 00:06:30;;;;;;;97.22;30.60;;;;;;;2.42;100.00;101409.16;4993554;28;20038;-76
2022/12/05 00:08:57;;;;;;;93.88;33.22;;;;;;;2.46;100.00;101411.69;4993772;28;20117;-77
2022/12/05 00:11:26;;;;;;;102.20;31.95;;;;;;;2.48;100.00;101411.66;4995926;28;20170;-76
2022/12/05 00:13:53;;;;;;;95.57;32.92;;;;;;;2.45;100.00;101406.34;4979045;28;20042;-77
2022/12/05 00:16:21;;;;;;;107.72;35.83;;;;;;;2.56;100.00;101405.00;4994536;28;20080;-77
2022/12/05 00:18:47;;;;;;;94.25;33.55;;;;;;;2.56;100.00;101404.13;4993140;28;20074;-77
2022/12/05 00:21:24;;;;;;;102.35;34.92;;;;;;;2.49;100.00;101397.16;4958688;28;20110;-77
2022/12/05 00:23:52;;;;;;;126.20;35.83;;;;;;;2.48;100.00;101411.66;4981779;28;20099;-77
2022/12/05 00:26:18;;;;;;;105.80;35.80;;;;;;;2.49;100.00;101405.28;4966367;28;20042;-77
2022/12/05 00:28:44;;;;;;;100.00;34.42;;;;;;;2.57;100.00;101405.88;4963945;28;20507;-77
2022/12/05 00:31:15;;;;;;;97.55;33.40;;;;;;;2.53;100.00;101405.13;4980473;28;20046;-77
2022/12/05 00:33:40;;;;;;;102.03;34.90;;;;;;;2.47;100.00;101405.34;4993677;28;20034;-77
2022/12/05 00:36:12;;;;;;;111.68;34.97;;;;;;;2.50;100.00;101404.34;4986219;28;20089;-77
2022/12/05 00:38:38;;;;;;;100.20;34.20;;;;;;;2.48;100.00;101398.13;4985580;28;20117;-77
2022/12/05 00:41:06;;;;;;;105.13;34.40;;;;;;;2.51;100.00;101395.28;4997539;28;20061;-77
2022/12/05 00:43:32;;;;;;;111.78;35.58;;;;;;;2.53;100.00;101393.44;4986873;28;20042;-77
2022/12/05 00:46:09;;;;;;;99.63;34.20;;;;;;;2.67;100.00;101395.59;5011774;28;20042;-77
2022/12/05 00:48:35;;;;;;;114.10;37.20;;;;;;;2.50;100.00;101401.66;4993159;28;20139;-77
2022/12/05 00:51:17;;;;;;;118.90;37.55;;;;;;;2.38;100.00;101402.97;4996865;28;20149;-77
2022/12/05 00:53:44;;;;;;;107.93;35.47;;;;;;;2.37;100.00;101398.50;4996769;28;20030;-77
2022/12/05 00:56:12;;;;;;;106.43;36.78;;;;;;;2.39;100.00;101404.72;4996363;28;20460;-77
2022/12/05 00:58:38;;;;;;;109.80;36.55;;;;;;;2.45;100.00;101406.34;4987450;28;20054;-77
2022/12/05 01:01:09;;;;;;;120.88;37.05;;;;;;;2.57;100.00;101404.09;4997337;28;20069;-77
2022/12/05 01:03:34;;;;;;;113.82;36.20;;;;;;;2.58;100.00;101404.94;4997592;28;20107;-77
2022/12/05 01:06:00;;;;;;;106.38;36.13;;;;;;;2.62;100.00;101408.41;4976887;28;20117;-77
2022/12/05 01:08:26;;;;;;;114.13;34.20;;;;;;;2.56;100.00;101404.13;4996729;28;20037;-77
2022/12/05 01:10:56;;;;;;;100.15;34.80;;;;;;;2.55;100.00;101405.94;4998449;28;20096;-77
2022/12/05 01:13:22;;;;;;;111.65;34.95;;;;;;;2.63;100.00;101411.06;4981915;28;20184;-77
2022/12/05 01:15:47;;;;;;;103.65;34.22;;;;;;;2.53;100.00;101404.25;4997264;28;20081;-77
2022/12/05 01:18:13;;;;;;;104.13;34.55;;;;;;;2.51;100.00;101400.69;4996966;28;20505;-77
2022/12/05 01:20:39;;;;;;;118.05;38.30;;;;;;;2.59;100.00;101398.59;4980527;28;20042;-77
2022/12/05 01:23:06;;;;;;;115.00;36.03;;;;;;;2.52;100.00;101402.47;4980874;28;20470;-77
2022/12/05 01:25:32;;;;;;;114.65;36.28;;;;;;;2.61;100.00;101409.34;4978669;28;20037;-77
2022/12/05 01:27:58;;;;;;;105.68;35.78;;;;;;;2.60;100.00;101415.72;4997602;28;20042;-77
2022/12/05 01:30:23;;;;;;;125.47;38.13;;;;;;;2.61;100.00;101407.53;4996455;28;20050;-77
2022/12/05 01:32:49;;;;;;;102.45;36.08;;;;;;;2.57;100.00;101417.59;4994976;28;20034;-77
2022/12/05 01:35:15;;;;;;;115.75;38.30;;;;;;;2.61;100.00;101407.53;4997658;28;20044;-77
2022/12/05 01:37:40;;;;;;;119.03;36.70;;;;;;;2.66;100.00;101416.34;4996998;28;20026;-77
2022/12/05 01:40:09;;;;;;;124.15;38.00;;;;;;;2.69;100.00;101408.13;4977044;28;20371;-77
2022/12/05 01:42:34;;;;;;;105.72;36.38;;;;;;;2.66;100.00;101416.34;5004406;28;20046;-78
2022/12/05 01:45:13;;;;;;;116.40;36.47;;;;;;;2.68;100.00;101424.41;4979860;28;20130;-77
2022/12/05 01:47:39;;;;;;;116.00;35.17;;;;;;;2.75;100.00;101432.25;4988124;28;20045;-77
2022/12/05 01:50:05;;;;;;;111.72;36.78;;;;;;;2.68;100.00;101427.13;4985404;28;20034;-77
2022/12/05 01:52:32;;;;;;;120.55;37.17;;;;;;;2.59;100.00;101425.63;4993536;28;20477;-77
2022/12/05 01:55:10;;;;;;;118.85;36.40;;;;;;;2.61;100.00;101429.16;5003006;28;20247;-77
2022/12/05 01:57:36;;;;;;;119.00;37.65;;;;;;;2.59;100.00;101425.63;4994783;28;20042;-77
2022/12/05 02:00:09;;;;;;;111.32;36.10;;;;;;;2.66;100.00;101426.31;4971890;28;20129;-77
2022/12/05 02:02:35;;;;;;;;;;;;;;;2.77;100.00;101437.56;4989224;28;20049;-77
2022/12/05 02:05:09;;;;;;;109.07;34.58;;;;;;;2.71;100.00;101430.59;4995357;28;20257;-77
2022/12/05 02:07:38;;;;;;;109.07;36.03;;;;;;;2.71;100.00;101424.31;4994464;28;20045;-77
2022/12/05 02:10:04;;;;;;;115.88;35.95;;;;;;;2.72;100.00;101432.38;4976837;28;20038;-77
2022/12/05 02:12:30;;;;;;;119.35;37.92;;;;;;;2.71;100.00;101432.41;4997594;28;20062;-77
2022/12/05 02:15:25;;;;;;;129.55;38.65;;;;;;;2.70;100.00;101431.50;4994952;28;20034;-77
2022/12/05 02:18:03;;;;;;;114.85;37.78;;;;;;;2.70;100.00;101445.03;4993823;28;20374;-77
2022/12/05 02:20:36;;;;;;;125.57;35.20;;;;;;;2.57;100.00;101422.09;4994992;28;20035;-77
2022/12/05 02:23:20;;;;;;;125.97;37.10;;;;;;;2.66;100.00;101429.00;4997339;28;20128;-77
2022/12/05 02:26:01;;;;;;;126.82;37.83;;;;;;;2.79;100.00;101427.59;4996780;28;20042;-77
2022/12/05 02:29:04;;;;;;;119.97;38.33;;;;;;;2.85;100.00;101443.56;4994866;28;20092;-77
2022/12/05 02:31:51;;;;;;;116.53;37.57;;;;;;;2.75;100.00;101429.53;4992834;28;20046;-77
2022/12/05 02:34:52;;;;;;;118.07;36.40;;;;;;;2.82;100.00;101426.59;4994930;28;20355;-77
2022/12/05 02:37:30;;;;;;;128.32;37.25;;;;;;;2.81;100.00;101425.72;4984265;28;20050;-77
2022/12/05 02:40:18;;;;;;;121.15;36.88;;;;;;;2.87;100.00;101430.91;4996870;28;20038;-77
2022/12/05 02:42:54;;;;;;;126.55;37.88;;;;;;;2.89;100.00;101437.13;4986557;28;20098;-77
2022/12/05 02:45:24;;;;;;;112.28;37.10;;;;;;;2.80;100.00;101428.47;4997484;28;20034;-77
2022/12/05 02:47:52;;;;;;;123.70;37.95;;;;;;;2.83;100.00;101433.78;4960269;28;20397;-77
2022/12/05 02:50:22;;;;;;;137.02;39.40;;;;;;;2.80;100.00;101437.47;4993888;28;20050;-77
2022/12/05 02:52:49;;;;;;;133.15;38.80;;;;;;;2.73;100.00;101430.53;4976679;28;20124;-76
2022/12/05 02:55:18;;;;;;;124.15;38.33;;;;;;;2.76;100.00;101436.69;5005762;28;20026;-77
2022/12/05 02:57:50;;;;;;;139.10;39.28;;;;;;;2.77;100.00;101429.47;4994831;28;20462;-77
2022/12/05 03:00:16;;;;;;;124.25;39.28;;;;;;;2.71;100.00;101436.00;4996427;28;20088;-77
2022/12/05 03:02:41;;;;;;;136.65;39.03;;;;;;;2.66;100.00;101438.00;4993726;28;20049;-77
2022/12/05 03:05:35;;;;;;;131.43;38.15;;;;;;;2.73;100.00;101434.09;4976377;28;20125;-77
2022/12/05 03:08:03;;;;;;;131.68;41.42;;;;;;;2.82;100.00;101426.59;4974002;28;20045;-77
2022/12/05 03:10:31;;;;;;;127.82;38.67;;;;;;;2.84;100.00;101430.16;4983257;28;20037;-77
2022/12/05 03:13:01;;;;;;;139.07;40.40;;;;;;;2.74;100.00;101418.78;4995746;28;20563;-77
2022/12/05 03:15:32;;;;;;;119.90;39.33;;;;;;;2.78;100.00;101433.06;4994143;28;20342;-77
2022/12/05 03:18:08;;;;;;;143.45;42.33;;;;;;;2.76;100.00;101433.13;4993727;28;20054;-77
2022/12/05 03:20:42;;;;;;;143.30;39.60;;;;;;;2.69;100.00;101427.06;4993562;28;20480;-77
2022/12/05 03:23:23;;;;;;;143.07;41.10;;;;;;;2.75;100.00;101440.38;4994274;28;21631;-76
2022/12/05 03:26:11;;;;;;;144.65;41.53;;;;;;;2.73;100.00;101439.50;4971635;28;20050;-77
2022/12/05 03:28:46;;;;;;;148.27;41.08;;;;;;;2.76;100.00;101430.41;4980243;28;20098;-77
2022/12/05 03:31:13;;;;;;;145.68;42.40;;;;;;;2.80;100.00;101429.34;4994215;28;20034;-77
2022/12/05 03:33:46;;;;;;;130.68;38.05;;;;;;;2.79;100.00;101427.59;4993122;28;20078;-77
2022/12/05 03:36:21;;;;;;;;;;;;;;;2.91;100.00;101420.84;4988223;28;20027;-77
2022/12/05 03:38:55;;;;;;;136.32;39.65;;;;;;;2.76;100.00;101423.19;4995604;28;19913;-77
2022/12/05 03:41:56;;;;;;;143.50;38.90;;;;;;;2.77;100.00;101418.66;4977788;28;20025;-77
2022/12/05 03:44:37;;;;;;;150.15;39.58;;;;;;;2.77;100.00;101418.66;4984911;28;20034;-77
2022/12/05 03:47:11;;;;;;;132.55;38.38;;;;;;;2.63;100.00;101419.19;4995282;28;20493;-77
2022/12/05 03:49:53;;;;;;;141.75;40.83;;;;;;;2.74;100.00;101430.47;4978406;28;20026;-77
2022/12/05 03:52:31;;;;;;;152.43;40.28;;;;;;;2.73;100.00;101431.41;4994617;28;20105;-77
2022/12/05 03:55:02;;;;;;;141.75;42.15;;;;;;;2.71;100.00;101419.78;4992684;28;20026;-77
2022/12/05 03:57:36;;;;;;;149.18;42.58;;;;;;;2.78;100.00;101423.13;4982918;28;20085;-77
2022/12/05 04:00:10;;;;;;;142.05;39.67;;;;;;;2.72;100.00;101429.66;4994442;28;20051;-77
2022/12/05 04:02:46;;;;;;;136.75;41.90;;;;;;;2.86;100.00;101431.81;4995028;28;20113;-77
2022/12/05 04:05:20;;;;;;;136.07;40.92;;;;;;;2.75;100.00;101432.25;4993814;28;20046;-77
2022/12/05 04:08:07;;;;;;;151.52;42.85;;;;;;;2.76;100.00;101433.13;4987445;28;20053;-77
2022/12/05 04:10:47;;;;;;;134.25;39.70;;;;;;;2.84;100.00;101431.00;4985315;28;20034;-77
2022/12/05 04:13:18;;;;;;;146.48;41.40;;;;;;;2.79;100.00;101426.69;4973564;28;20047;-77
2022/12/05 04:19:02;;;;;;;135.50;42.35;;;;;;;2.76;100.00;101430.41;4993595;28;20038;-77
2022/12/05 04:21:39;;;;;;;139.73;40.53;;;;;;;2.72;100.00;101426.06;4993408;28;20034;-76
2022/12/05 04:27:39;;;;;;;159.02;43.08;;;;;;;2.79;100.00;101443.84;4965892;28;20054;-77
2022/12/05 04:30:09;;;;;;;141.73;38.70;;;;;;;2.90;100.00;101446.13;4990854;28;20080;-77
2022/12/05 04:32:46;;;;;;;149.40;40.58;;;;;;;2.81;100.00;101449.19;4977529;28;20363;-77
2022/12/05 04:35:21;;;;;;;150.15;41.65;;;;;;;2.63;100.00;101442.63;4989670;28;20027;-77
2022/12/05 04:37:53;;;;;;;153.25;41.92;;;;;;;2.66;100.00;101443.41;4988431;28;20105;-77
2022/12/05 04:40:40;;;;;;;160.70;44.17;;;;;;;2.70;100.00;101449.56;4988399;28;20042;-77
2022/12/05 04:43:08;;;;;;;165.45;42.80;;;;;;;2.72;100.00;101443.19;4992558;28;20088;-77
2022/12/05 04:45:36;;;;;;;153.63;41.20;;;;;;;2.76;100.00;101438.53;4991707;28;20046;-77
2022/12/05 04:48:09;;;;;;;165.55;42.90;;;;;;;2.65;100.00;101446.16;4992952;28;20046;-77
2022/12/05 04:50:37;;;;;;;156.20;43.10;;;;;;;2.79;100.00;101453.75;4993108;28;20034;-77
2022/12/05 04:53:04;;;;;;;148.93;43.40;;;;;;;2.87;100.00;101446.22;5006112;28;20054;-77
2022/12/05 04:55:34;;;;;;;146.90;41.20;;;;;;;2.79;100.00;101442.94;4993120;28;20035;-77
2022/12/05 04:58:32;;;;;;;139.63;40.85;;;;;;;2.80;100.00;101444.69;4994170;28;20117;-77
2022/12/05 05:01:14;;;;;;;146.43;39.67;;;;;;;2.85;100.00;101443.56;4986789;28;20047;-77
2022/12/05 05:03:50;;;;;;;150.87;40.53;;;;;;;2.78;100.00;101442.06;4987320;28;20039;-78
2022/12/05 05:06:16;;;;;;;149.15;41.22;;;;;;;2.80;100.00;101447.41;4992084;28;20045;-78
2022/12/05 05:08:48;;;;;;;158.15;43.15;;;;;;;2.82;100.00;101453.63;4977784;28;20035;-77
2022/12/05 05:11:21;;;;;;;151.05;39.95;;;;;;;2.75;100.00;101461.09;4995099;28;20046;-77
2022/12/05 05:13:47;;;;;;;151.45;43.00;;;;;;;2.77;100.00;101467.31;4989987;28;20042;-77
2022/12/05 05:16:21;;;;;;;170.48;44.75;;;;;;;2.79;100.00;101464.56;4997695;28;20029;-77
2022/12/05 05:18:48;;;;;;;152.15;42.85;;;;;;;2.72;100.00;101464.81;4993353;28;20153;-77
2022/12/05 05:21:26;;;;;;;161.70;43.50;;;;;;;2.62;100.00;101460.66;4988679;28;20069;-77
2022/12/05 05:23:52;;;;;;;180.15;46.10;;;;;;;2.67;100.00;101468.59;5006486;28;20027;-77
2022/12/05 05:26:18;;;;;;;169.88;45.20;;;;;;;2.63;100.00;101475.94;4987547;28;20030;-77
2022/12/05 05:28:45;;;;;;;161.50;44.15;;;;;;;2.65;100.00;101463.25;4997751;28;20034;-77
2022/12/05 05:31:10;;;;;;;184.57;45.28;;;;;;;2.67;100.00;101469.50;4973664;28;20030;-77
2022/12/05 05:33:36;;;;;;;178.95;45.05;;;;;;;2.62;100.00;101457.06;4990348;28;20041;-78
2022/12/05 05:36:07;;;;;;;175.00;44.88;;;;;;;2.69;100.00;101464.00;4993619;28;20094;-77
2022/12/05 05:38:44;;;;;;;179.38;46.17;;;;;;;2.69;100.00;101464.91;4980433;28;20034;-77
2022/12/05 05:41:15;;;;;;;204.00;47.72;;;;;;;2.66;100.00;101458.75;4994614;28;20034;-77
2022/12/05 05:43:40;;;;;;;180.25;46.95;;;;;;;2.71;100.00;101464.84;4995401;28;20070;-78
2022/12/05 05:46:06;;;;;;;171.98;42.80;;;;;;;2.69;100.00;101467.63;4994771;28;20062;-77
2022/12/05 05:48:32;;;;;;;190.18;44.78;;;;;;;2.71;100.00;101463.03;4978864;28;20480;-78
2022/12/05 05:50:59;;;;;;;201.00;47.95;;;;;;;2.80;100.00;101466.34;4993952;28;20034;-78
2022/12/05 05:53:24;;;;;;;184.60;45.83;;;;;;;2.76;100.00;101468.28;4978299;28;20244;-78
2022/12/05 05:55:49;;;;;;;207.02;46.58;;;;;;;2.71;100.00;101473.84;4990472;28;20043;-78
2022/12/05 05:58:15;;;;;;;199.27;46.58;;;;;;;2.74;100.00;101471.03;5004356;28;20034;-78
2022/12/05 06:00:40;;;;;;;192.93;46.15;;;;;;;2.74;100.00;101473.75;4996420;28;20041;-78
2022/12/05 06:03:09;;;;;;;209.18;47.55;;;;;;;2.82;100.00;101470.75;4975681;28;20038;-78
2022/12/05 06:05:34;;;;;;;209.32;49.78;;;;;;;2.84;100.00;101473.41;4976227;28;20100;-78
2022/12/05 06:08:00;;;;;;;197.35;48.40;;;;;;;2.83;100.00;101480.63;5013687;28;20429;-78
2022/12/05 06:10:25;;;;;;;206.75;49.28;;;;;;;2.86;100.00;101472.41;4992741;28;20030;-78
2022/12/05 06:12:51;;;;;;;192.63;47.95;;;;;;;2.77;100.00;101486.25;4993775;28;20050;-78
2022/12/05 06:15:16;;;;;;;218.25;49.72;;;;;;;2.84;100.00;101482.41;4987544;28;20041;-78
2022/12/05 06:17:42;;;;;;;218.80;51.67;;;;;;;2.89;100.00;101485.81;4986161;28;20042;-77
2022/12/05 06:20:08;;;;;;;208.98;46.22;;;;;;;2.72;100.00;101478.31;4975040;28;20039;-79
2022/12/05 06:22:33;;;;;;;215.15;51.08;;;;;;;2.75;100.00;101480.00;5006541;28;20049;-78
2022/12/05 06:24:59;;;;;;;197.07;46.03;;;;;;;2.83;100.00;101486.03;4994167;28;20105;-77
2022/12/05 06:27:24;;;;;;;211.82;47.40;;;;;;;2.84;100.00;101486.94;5005158;28;20061;-77
2022/12/05 06:29:50;;;;;;;204.27;47.75;;;;;;;2.86;100.00;101482.34;5005701;28;20035;-77
2022/12/05 06:32:15;;;;;;;216.40;50.08;;;;;;;2.78;100.00;101481.75;4969604;28;20043;-78
2022/12/05 06:34:41;;;;;;;206.35;47.85;;;;;;;2.78;100.00;101482.59;4996114;28;20038;-78
2022/12/05 06:37:07;;;;;;;198.23;47.97;;;;;;;2.82;100.00;101480.66;4999653;28;20516;-78
2022/12/05 06:39:32;;;;;;;197.10;46.63;;;;;;;2.88;100.00;101483.16;4974242;28;20098;-78
2022/12/05 06:41:58;;;;;;;203.43;47.75;;;;;;;2.80;100.00;101478.03;4946604;28;20058;-78
2022/12/05 06:44:25;;;;;;;194.85;45.30;;;;;;;2.85;100.00;101486.84;4990617;28;20081;-78
2022/12/05 06:46:52;;;;;;;207.55;46.42;;;;;;;2.88;100.00;101493.97;4986111;28;20038;-78
2022/12/05 06:49:17;;;;;;;199.10;48.80;;;;;;;2.79;100.00;101489.78;4978292;28;20030;-78
2022/12/05 06:51:43;;;;;;;194.80;45.70;;;;;;;2.86;100.00;101493.16;4996415;28;20412;-78
2022/12/05 06:54:11;;;;;;;214.48;46.80;;;;;;;2.82;100.00;101486.09;4975402;28;20141;-78
2022/12/05 06:56:36;;;;;;;200.45;48.38;;;;;;;2.86;100.00;101485.03;4976186;28;20046;-77
2022/12/05 06:59:02;;;;;;;204.45;47.45;;;;;;;2.83;100.00;101487.84;4990719;28;20390;-78
2022/12/05 07:01:40;;;;;;;203.75;47.45;;;;;;;2.90;100.00;101486.69;4986430;28;20042;-78
2022/12/05 07:04:23;;;;;;;197.68;47.70;;;;;;;2.87;100.00;101495.81;4981061;28;20498;-78
2022/12/05 07:06:51;;;;;;;187.43;46.75;;;;;;;2.91;100.00;101508.25;5010303;28;20121;-78
2022/12/05 07:09:19;;;;;;;193.75;45.78;;;;;;;2.83;100.00;101496.84;4994236;28;20072;-78
2022/12/05 07:11:49;;;;;;;179.48;44.60;;;;;;;2.92;100.00;101507.34;4994191;28;20034;-78
2022/12/05 07:14:15;;;;;;;203.00;48.85;;;;;;;2.97;100.00;101509.88;4994126;28;20026;-77
2022/12/05 07:16:41;;;;;;;191.80;45.85;;;;;;;2.93;100.00;101511.78;4989793;28;20461;-78
2022/12/05 07:19:06;;;;;;;196.95;45.92;;;;;;;2.85;100.00;101511.19;4999460;28;20034;-78
2022/12/05 07:21:32;;;;;;;200.40;47.13;;;;;;;2.85;100.00;101507.59;4994601;28;20062;-78
2022/12/05 07:23:58;;;;;;;186.80;45.05;;;;;;;2.89;100.00;101522.78;4994724;28;20045;-78
2022/12/05 07:26:24;;;;;;;205.95;45.70;;;;;;;2.93;100.00;101524.44;4994043;28;20042;-78
2022/12/05 07:28:56;;;;;;;186.93;44.78;;;;;;;2.91;100.00;101535.31;4984847;28;20479;-77
2022/12/05 07:31:22;;;;;;;186.05;43.92;;;;;;;2.88;100.00;101534.53;4975000;28;20038;-77
2022/12/05 07:33:50;;;;;;;190.23;42.67;;;;;;;2.89;100.00;101537.19;4992224;28;20038;-78
2022/12/05 07:36:19;;;;;;;183.48;44.08;;;;;;;2.94;100.00;101537.91;4991768;28;20026;-77
2022/12/05 07:38:45;;;;;;;176.90;44.10;;;;;;;2.83;100.00;101533.84;4990924;28;20034;-77
2022/12/05 07:41:25;;;;;;;158.02;41.97;;;;;;;2.94;100.00;101531.63;4991597;28;20026;-78
2022/12/05 07:43:52;;;;;;;165.70;43.50;;;;;;;2.93;100.00;101532.53;5009383;28;20065;-78
2022/12/05 07:46:18;;;;;;;159.85;40.60;;;;;;;2.91;100.00;101532.59;4993410;28;20141;-77
2022/12/05 07:48:45;;;;;;;169.93;41.05;;;;;;;2.88;100.00;101524.59;4985046;28;20038;-77
2022/12/05 07:51:11;;;;;;;181.65;43.40;;;;;;;2.84;100.00;101532.91;4985266;28;20026;-77
2022/12/05 07:53:37;;;;;;;166.23;42.13;;;;;;;2.86;100.00;101540.00;4995363;28;20486;-77
2022/12/05 07:56:09;;;;;;;176.15;45.45;;;;;;;2.94;100.00;101547.84;4946620;28;20031;-78
2022/12/05 07:58:36;;;;;;;180.02;44.75;;;;;;;2.89;100.00;101544.44;4986255;28;20058;-77
2022/12/05 08:01:11;;;;;;;162.20;39.20;;;;;;;2.83;100.00;101541.94;4992478;28;20486;-78
2022/12/05 08:03:37;;;;;;;160.77;39.70;;;;;;;2.96;100.00;101545.09;4994899;28;20044;-78
2022/12/05 08:06:07;;;;;;;170.75;42.15;;;;;;;2.93;100.00;101540.66;4995433;28;20501;-78
2022/12/05 08:08:32;;;;;;;164.85;42.03;;;;;;;2.98;100.00;101545.91;4968051;28;20040;-79
2022/12/05 08:11:10;;;;;;;156.75;39.63;;;;;;;2.93;100.00;101548.78;4993402;28;20062;-76
2022/12/05 08:13:36;;;;;;;166.23;43.08;;;;;;;3.00;100.00;101554.84;4992526;28;20397;-78
2022/12/05 08:16:08;;;;;;;183.55;43.35;;;;;;;3.00;100.00;101562.97;4977050;28;20496;-78
2022/12/05 08:18:34;;;;;;;182.73;40.30;;;;;;;2.87;100.00;101555.31;4989515;28;20057;-78
2022/12/05 08:21:05;;;;;;;181.55;43.60;;;;;;;2.94;100.00;101564.94;4993365;28;20038;-77
2022/12/05 08:23:31;;;;;;;183.52;43.70;;;;;;;2.98;100.00;101570.25;4984630;28;20042;-77
2022/12/05 08:26:24;;;;;;;187.43;43.60;;;;;;;3.08;100.00;101564.47;4988306;28;20034;-76
2022/12/05 08:28:55;;;;;;;170.40;41.78;;;;;;;3.04;100.00;101573.63;4980355;28;20054;-77
2022/12/05 08:31:23;;;;;;;168.25;43.60;;;;;;;3.03;100.00;101577.25;4992724;28;20089;-77
2022/12/05 08:33:50;;;;;;;190.70;46.05;;;;;;;2.95;100.00;101576.66;4990980;28;20045;-77
2022/12/05 08:36:17;;;;;;;184.68;42.58;;;;;;;3.06;100.00;101574.44;4988855;28;20038;-77
2022/12/05 08:38:43;;;;;;;197.00;45.15;;;;;;;3.01;100.00;101581.84;4987518;28;20129;-78
2022/12/05 08:41:16;;;;;;;201.50;44.92;;;;;;;2.98;100.00;101571.13;4976282;28;20101;-77
2022/12/05 08:43:43;;;;;;;210.50;44.83;;;;;;;3.05;100.00;101585.31;4988049;28;20091;-77
2022/12/05 08:46:09;;;;;;;205.15;46.33;;;;;;;3.10;100.00;101580.66;4982413;28;20486;-77
2022/12/05 08:48:35;;;;;;;198.20;46.53;;;;;;;2.96;100.00;101583.84;4995034;28;20041;-79
2022/12/05 08:51:10;;;;;;;209.70;47.78;;;;;;;3.01;100.00;101580.97;4997061;28;20038;-78
2022/12/05 08:53:36;;;;;;;186.23;44.85;;;;;;;3.05;100.00;101585.31;4998280;28;20049;-77
2022/12/05 08:56:05;;;;;;;177.18;43.70;;;;;;;2.88;100.00;101589.50;4996704;28;20031;-77
2022/12/05 08:58:30;;;;;;;182.70;42.88;;;;;;;3.00;100.00;101587.31;4995839;28;20397;-79
2022/12/05 09:01:03;;;;;;;174.55;42.05;;;;;;;3.01;100.00;101586.38;4977364;28;20039;-77
2022/12/05 09:03:28;;;;;;;194.82;42.25;;;;;;;3.03;100.00;101596.19;4983531;28;20109;-78
2022/12/05 09:05:54;;;;;;;189.85;43.88;;;;;;;2.98;100.00;101595.47;4990229;28;20062;-78
2022/12/05 09:08:19;;;;;;;176.63;42.22;;;;;;;2.93;100.00;101594.75;4994674;28;20037;-78
2022/12/05 09:10:44;;;;;;;165.70;41.65;;;;;;;3.05;100.00;101599.75;4980974;28;20038;-78
2022/12/05 09:13:12;;;;;;;162.65;41.67;;;;;;;2.99;100.00;101602.66;4994638;28;20051;-78
2022/12/05 09:15:38;;;;;;;167.75;41.47;;;;;;;3.08;100.00;101610.47;4997408;28;20046;-77
2022/12/05 09:18:03;;;;;;;163.93;40.08;;;;;;;3.00;100.00;101609.84;4993445;28;20482;-77
2022/12/05 09:20:29;;;;;;;176.90;40.72;;;;;;;2.97;100.00;101611.75;4994244;28;20042;-77
2022/12/05 09:22:55;;;;;;;167.90;41.97;;;;;;;3.03;100.00;101617.84;4950375;28;20055;-78
2022/12/05 09:25:20;;;;;;;186.02;42.22;;;;;;;3.06;100.00;101612.31;4990545;28;20026;-77
2022/12/05 09:27:46;;;;;;;175.40;43.42;;;;;;;3.10;100.00;101622.09;4994394;28;20125;-77
2022/12/05 09:30:12;;;;;;;173.88;42.28;;;;;;;3.08;100.00;101614.97;4994387;28;20465;-77
2022/12/05 09:32:37;;;;;;;164.18;41.13;;;;;;;3.03;100.00;101615.13;4989108;28;20046;-77
2022/12/05 09:35:03;;;;;;;160.52;39.78;;;;;;;3.00;100.00;101615.25;4968253;28;20080;-79
2022/12/05 09:37:31;;;;;;;150.90;39.17;;;;;;;3.02;100.00;101621.50;4977196;28;20401;-77
2022/12/05 09:39:56;;;;;;;141.07;39.08;;;;;;;3.00;100.00;101620.66;4985275;28;20438;-78
2022/12/05 09:42:47;;;;;;;147.13;38.90;;;;;;;2.98;100.00;101630.63;4982284;28;20039;-76
2022/12/05 09:45:33;;;;;;;146.82;39.13;;;;;;;2.97;100.00;101628.88;4992622;28;20521;-77
2022/12/05 09:48:05;;;;;;;136.52;36.40;;;;;;;3.01;100.00;101626.94;4979275;28;20374;-78
2022/12/05 09:50:38;;;;;;;133.55;36.63;;;;;;;3.00;100.00;101627.88;4975996;28;20034;-77
2022/12/05 09:53:16;;;;;;;108.88;33.58;;;;;;;2.98;100.00;101629.75;4992078;28;20030;-77
2022/12/05 09:55:44;;;;;;;115.35;33.35;;;;;;;3.02;100.00;101628.75;4978242;28;20512;-77
2022/12/05 09:58:22;;;;;;;102.30;30.45;;;;;;;2.93;100.00;101635.31;4991449;28;20154;-77
2022/12/05 10:00:53;;;;;;;94.25;29.95;;;;;;;2.96;100.00;101627.13;4978976;28;20039;-77
2022/12/05 10:03:28;;;;;;;109.13;31.92;;;;;;;2.93;100.00;101629.91;4986230;28;20037;-77
2022/12/05 10:06:31;;;;;;;90.63;30.35;;;;;;;2.94;100.00;101629.00;4977297;28;20041;-77
2022/12/05 10:09:15;;;;;;;102.20;31.08;;;;;;;2.98;100.00;101630.63;4970434;28;20046;-77
2022/12/05 10:12:02;;;;;;;109.95;33.58;;;;;;;3.01;100.00;101630.53;4993453;28;20038;-78
2022/12/05 10:14:45;;;;;;;110.25;33.22;;;;;;;3.02;100.00;101632.31;4995930;28;20163;-77
2022/12/05 10:17:33;;;;;;;116.85;34.13;;;;;;;3.05;100.00;101615.97;4996634;28;20031;-77
2022/12/05 10:20:02;;;;;;;124.22;34.90;;;;;;;3.09;100.00;101620.31;4990474;28;20030;-77
2022/12/05 10:22:38;;;;;;;114.07;33.85;;;;;;;3.07;100.00;101633.03;4991952;28;20034;-77
2022/12/05 10:25:05;;;;;;;90.78;28.75;;;;;;;3.10;100.00;101629.34;4974883;28;20493;-77
2022/12/05 10:27:48;;;;;;;99.80;30.98;;;;;;;2.96;100.00;101626.25;4972236;28;20490;-78
2022/12/05 10:30:20;;;;;;;95.88;29.75;;;;;;;2.89;100.00;101629.16;4991922;28;20100;-77
2022/12/05 10:32:56;;;;;;;99.53;30.33;;;;;;;2.94;100.00;101629.88;4993916;28;20034;-77
2022/12/05 10:35:25;;;;;;;91.85;30.27;;;;;;;3.01;100.00;101627.81;4996301;28;20507;-77
2022/12/05 10:37:57;;;;;;;95.18;30.42;;;;;;;2.97;100.00;101631.59;4994831;28;20026;-77
2022/12/05 10:40:31;;;;;;;93.28;30.05;;;;;;;3.00;100.00;101633.28;4978909;28;20041;-77
2022/12/05 10:42:57;;;;;;;98.28;30.20;;;;;;;2.99;100.00;101632.41;4994032;28;20034;-78
2022/12/05 10:45:23;;;;;;;96.47;30.52;;;;;;;2.96;100.00;101631.66;4962789;28;20101;-77
2022/12/05 10:47:55;;;;;;;95.47;31.45;;;;;;;3.02;100.00;101628.75;4985191;28;20035;-77
2022/12/05 10:50:32;;;;;;;106.70;31.20;;;;;;;3.05;100.00;101628.59;4986986;28;20041;-76
2022/12/05 10:53:00;;;;;;;108.78;31.42;;;;;;;3.06;100.00;101627.66;4987739;28;20034;-76
2022/12/05 10:55:39;;;;;;;102.00;30.95;;;;;;;3.04;100.00;101634.97;4995603;28;20039;-75
2022/12/05 10:58:12;;;;;;;105.03;31.27;;;;;;;3.06;100.00;101631.25;4983768;28;20027;-76
2022/12/05 11:00:43;;;;;;;;;;;;;;;3.00;100.00;101623.38;4993180;28;20039;-75
2022/12/05 11:03:21;;;;;;;100.47;31.30;;;;;;;3.09;100.00;101625.75;4971548;28;19921;-75
2022/12/05 11:05:49;;;;;;;91.10;29.95;;;;;;;3.03;100.00;101620.53;4988281;28;20034;-76
2022/12/05 11:08:27;;;;;;;96.82;29.58;;;;;;;3.05;100.00;101626.81;4985922;28;20046;-76
2022/12/05 11:11:05;;;;;;;99.00;31.88;;;;;;;3.08;100.00;101621.28;4985713;28;20557;-77
2022/12/05 11:13:31;;;;;;;97.40;30.70;;;;;;;2.99;100.00;101624.31;4980465;28;20109;-77
2022/12/05 11:15:57;;;;;;;99.68;29.95;;;;;;;3.02;100.00;101626.91;4978436;28;20038;-76
2022/12/05 11:18:33;;;;;;;95.25;30.05;;;;;;;3.03;100.00;101623.25;4981709;28;20478;-77
2022/12/05 11:21:13;;;;;;;105.72;33.20;;;;;;;3.01;100.00;101616.13;4985558;28;20041;-77
2022/12/05 11:23:39;;;;;;;93.20;30.25;;;;;;;3.01;100.00;101622.41;4984001;28;20038;-76
2022/12/05 11:26:19;;;;;;;90.25;30.90;;;;;;;2.98;100.00;101624.34;4978524;28;20126;-76
2022/12/05 11:28:45;;;;;;;94.20;29.85;;;;;;;3.07;100.00;101615.94;4993719;28;20026;-76